sensor_id;sensor_type;location;lat;lon;timestamp;P1;durP1;ratioP1;P2;durP2;ratioP2
32032;SDS011;31720;52.638;9.216;2022-12-18T00:01:32;19.63;;;8.27;;
32032;SDS011;31720;52.638;9.216;2022-12-18T00:04:36;21.77;;;9.05;;
32032;SDS011;31720;52.638;9.216;2022-12-18T00:07:37;23.50;;;10.65;;
32032;SDS011;31720;52.638;9.216;2022-12-18T00:10:39;14.93;;;8.18;;
32032;SDS011;31720;52.638;9.216;2022-12-18T00:13:40;15.90;;;6.95;;
32032;SDS011;31720;52.638;9.216;2022-12-18T00:16:43;26.33;;;10.70;;
32032;SDS011;31720;52.638;9.216;2022-12-18T00:19:46;21.05;;;9.93;;
32032;SDS011;31720;52.638;9.216;2022-12-18T00:22:48;20.75;;;8.73;;
32032;SDS011;31720;52.638;9.216;2022-12-18T00:25:49;21.38;;;10.68;;
32032;SDS011;31720;52.638;9.216;2022-12-18T00:28:51;17.48;;;7.95;;
32032;SDS011;31720;52.638;9.216;2022-12-18T00:31:53;19.30;;;7.40;;
32032;SDS011;31720;52.638;9.216;2022-12-18T00:34:56;24.40;;;8.65;;
32032;SDS011;31720;52.638;9.216;2022-12-18T00:37:57;23.98;;;8.98;;
32032;SDS011;31720;52.638;9.216;2022-12-18T00:40:58;12.20;;;6.82;;
32032;SDS011;31720;52.638;9.216;2022-12-18T00:44:00;18.50;;;9.75;;
32032;SDS011;31720;52.638;9.216;2022-12-18T00:47:01;18.45;;;8.30;;
32032;SDS011;31720;52.638;9.216;2022-12-18T00:50:04;26.17;;;8.63;;
32032;SDS011;31720;52.638;9.216;2022-12-18T00:53:06;19.50;;;9.93;;
32032;SDS011;31720;52.638;9.216;2022-12-18T00:56:07;16.42;;;6.93;;
32032;SDS011;31720;52.638;9.216;2022-12-18T00:59:09;13.35;;;7.00;;
32032;SDS011;31720;52.638;9.216;2022-12-18T01:02:10;21.05;;;7.15;;
32032;SDS011;31720;52.638;9.216;2022-12-18T01:05:16;18.02;;;7.82;;
32032;SDS011;31720;52.638;9.216;2022-12-18T01:08:17;17.60;;;7.60;;
32032;SDS011;31720;52.638;9.216;2022-12-18T01:11:19;19.05;;;10.18;;
32032;SDS011;31720;52.638;9.216;2022-12-18T01:14:21;8.98;;;4.63;;
32032;SDS011;31720;52.638;9.216;2022-12-18T01:17:23;27.05;;;8.75;;
32032;SDS011;31720;52.638;9.216;2022-12-18T01:20:26;10.27;;;6.05;;
32032;SDS011;31720;52.638;9.216;2022-12-18T01:23:27;24.17;;;8.38;;
32032;SDS011;31720;52.638;9.216;2022-12-18T01:26:29;15.48;;;5.93;;
32032;SDS011;31720;52.638;9.216;2022-12-18T01:29:30;13.32;;;6.50;;
32032;SDS011;31720;52.638;9.216;2022-12-18T01:32:32;17.25;;;6.78;;
32032;SDS011;31720;52.638;9.216;2022-12-18T01:35:39;9.88;;;6.05;;
32032;SDS011;31720;52.638;9.216;2022-12-18T01:38:41;16.30;;;6.87;;
32032;SDS011;31720;52.638;9.216;2022-12-18T01:41:43;12.48;;;7.68;;
32032;SDS011;31720;52.638;9.216;2022-12-18T01:45:05;4.45;;;3.75;;
32032;SDS011;31720;52.638;9.216;2022-12-18T01:48:22;13.15;;;6.68;;
32032;SDS011;31720;52.638;9.216;2022-12-18T01:51:25;18.00;;;5.55;;
32032;SDS011;31720;52.638;9.216;2022-12-18T01:54:28;8.50;;;5.32;;
32032;SDS011;31720;52.638;9.216;2022-12-18T01:57:29;18.33;;;6.65;;
32032;SDS011;31720;52.638;9.216;2022-12-18T02:00:32;16.27;;;5.78;;
32032;SDS011;31720;52.638;9.216;2022-12-18T02:03:34;11.05;;;5.22;;
32032;SDS011;31720;52.638;9.216;2022-12-18T02:06:38;13.40;;;4.63;;
32032;SDS011;31720;52.638;9.216;2022-12-18T02:09:42;14.02;;;4.70;;
32032;SDS011;31720;52.638;9.216;2022-12-18T02:12:48;25.65;;;5.40;;
32032;SDS011;31720;52.638;9.216;2022-12-18T02:15:55;4.45;;;3.92;;
32032;SDS011;31720;52.638;9.216;2022-12-18T02:19:05;4.78;;;3.30;;
32032;SDS011;31720;52.638;9.216;2022-12-18T02:22:23;17.05;;;4.32;;
32032;SDS011;31720;52.638;9.216;2022-12-18T02:25:33;7.35;;;4.72;;
32032;SDS011;31720;52.638;9.216;2022-12-18T02:28:49;12.05;;;4.05;;
32032;SDS011;31720;52.638;9.216;2022-12-18T02:31:56;11.10;;;3.67;;
32032;SDS011;31720;52.638;9.216;2022-12-18T02:34:59;7.10;;;4.28;;
32032;SDS011;31720;52.638;9.216;2022-12-18T02:38:05;7.15;;;4.05;;
32032;SDS011;31720;52.638;9.216;2022-12-18T02:41:07;4.82;;;3.70;;
32032;SDS011;31720;52.638;9.216;2022-12-18T02:44:11;10.40;;;4.47;;
32032;SDS011;31720;52.638;9.216;2022-12-18T02:47:15;7.80;;;3.22;;
32032;SDS011;31720;52.638;9.216;2022-12-18T02:50:20;13.32;;;4.95;;
32032;SDS011;31720;52.638;9.216;2022-12-18T02:53:28;5.03;;;3.58;;
32032;SDS011;31720;52.638;9.216;2022-12-18T02:56:38;5.75;;;4.25;;
32032;SDS011;31720;52.638;9.216;2022-12-18T02:59:49;21.27;;;4.88;;
32032;SDS011;31720;52.638;9.216;2022-12-18T03:02:59;4.97;;;3.55;;
32032;SDS011;31720;52.638;9.216;2022-12-18T03:06:07;2.78;;;2.13;;
32032;SDS011;31720;52.638;9.216;2022-12-18T03:09:13;4.50;;;2.53;;
32032;SDS011;31720;52.638;9.216;2022-12-18T03:12:24;6.50;;;2.75;;
32032;SDS011;31720;52.638;9.216;2022-12-18T03:15:34;7.00;;;2.38;;
32032;SDS011;31720;52.638;9.216;2022-12-18T03:18:38;2.67;;;1.77;;
32032;SDS011;31720;52.638;9.216;2022-12-18T03:21:47;4.00;;;3.17;;
32032;SDS011;31720;52.638;9.216;2022-12-18T03:24:52;3.42;;;1.95;;
32032;SDS011;31720;52.638;9.216;2022-12-18T03:27:56;12.25;;;4.63;;
32032;SDS011;31720;52.638;9.216;2022-12-18T03:31:02;4.32;;;3.10;;
32032;SDS011;31720;52.638;9.216;2022-12-18T03:34:09;3.15;;;2.58;;
32032;SDS011;31720;52.638;9.216;2022-12-18T03:37:16;5.15;;;2.08;;
32032;SDS011;31720;52.638;9.216;2022-12-18T03:40:18;7.15;;;2.58;;
32032;SDS011;31720;52.638;9.216;2022-12-18T03:43:26;6.30;;;3.08;;
32032;SDS011;31720;52.638;9.216;2022-12-18T03:46:38;8.13;;;2.97;;
32032;SDS011;31720;52.638;9.216;2022-12-18T03:49:47;12.68;;;3.72;;
32032;SDS011;31720;52.638;9.216;2022-12-18T03:52:55;3.25;;;2.40;;
32032;SDS011;31720;52.638;9.216;2022-12-18T03:56:02;3.15;;;2.90;;
32032;SDS011;31720;52.638;9.216;2022-12-18T03:59:05;5.40;;;3.42;;
32032;SDS011;31720;52.638;9.216;2022-12-18T04:02:10;4.60;;;3.28;;
32032;SDS011;31720;52.638;9.216;2022-12-18T04:05:12;3.72;;;2.35;;
32032;SDS011;31720;52.638;9.216;2022-12-18T04:08:15;5.97;;;3.55;;
32032;SDS011;31720;52.638;9.216;2022-12-18T04:11:17;7.35;;;3.08;;
32032;SDS011;31720;52.638;9.216;2022-12-18T04:14:18;5.13;;;2.92;;
32032;SDS011;31720;52.638;9.216;2022-12-18T04:17:21;6.30;;;3.58;;
32032;SDS011;31720;52.638;9.216;2022-12-18T04:20:23;14.00;;;5.15;;
32032;SDS011;31720;52.638;9.216;2022-12-18T04:23:25;5.10;;;2.72;;
32032;SDS011;31720;52.638;9.216;2022-12-18T04:26:26;22.48;;;3.13;;
32032;SDS011;31720;52.638;9.216;2022-12-18T04:29:28;9.48;;;2.50;;
32032;SDS011;31720;52.638;9.216;2022-12-18T04:32:30;3.13;;;2.45;;
32032;SDS011;31720;52.638;9.216;2022-12-18T04:35:32;4.28;;;2.83;;
32032;SDS011;31720;52.638;9.216;2022-12-18T04:38:33;3.53;;;2.47;;
32032;SDS011;31720;52.638;9.216;2022-12-18T04:41:35;4.55;;;1.48;;
32032;SDS011;31720;52.638;9.216;2022-12-18T04:44:36;4.03;;;2.75;;
32032;SDS011;31720;52.638;9.216;2022-12-18T04:47:39;3.60;;;2.35;;
32032;SDS011;31720;52.638;9.216;2022-12-18T04:50:40;1.73;;;1.60;;
32032;SDS011;31720;52.638;9.216;2022-12-18T04:53:42;16.08;;;2.15;;
32032;SDS011;31720;52.638;9.216;2022-12-18T04:56:43;7.15;;;2.60;;
32032;SDS011;31720;52.638;9.216;2022-12-18T04:59:44;14.82;;;3.55;;
32032;SDS011;31720;52.638;9.216;2022-12-18T05:02:47;2.83;;;2.42;;
32032;SDS011;31720;52.638;9.216;2022-12-18T05:05:49;4.22;;;2.17;;
32032;SDS011;31720;52.638;9.216;2022-12-18T05:08:51;7.32;;;2.60;;
32032;SDS011;31720;52.638;9.216;2022-12-18T05:11:52;9.40;;;2.80;;
32032;SDS011;31720;52.638;9.216;2022-12-18T05:14:54;8.23;;;2.08;;
32032;SDS011;31720;52.638;9.216;2022-12-18T05:17:57;3.15;;;1.48;;
32032;SDS011;31720;52.638;9.216;2022-12-18T05:20:59;7.40;;;1.85;;
32032;SDS011;31720;52.638;9.216;2022-12-18T05:24:00;3.78;;;1.33;;
32032;SDS011;31720;52.638;9.216;2022-12-18T05:27:02;2.45;;;2.10;;
32032;SDS011;31720;52.638;9.216;2022-12-18T05:30:04;5.00;;;2.58;;
32032;SDS011;31720;52.638;9.216;2022-12-18T05:33:07;1.27;;;1.17;;
32032;SDS011;31720;52.638;9.216;2022-12-18T05:36:09;4.82;;;1.25;;
32032;SDS011;31720;52.638;9.216;2022-12-18T05:39:11;0.65;;;0.65;;
32032;SDS011;31720;52.638;9.216;2022-12-18T05:42:12;1.40;;;1.15;;
32032;SDS011;31720;52.638;9.216;2022-12-18T05:45:14;5.25;;;2.50;;
32032;SDS011;31720;52.638;9.216;2022-12-18T05:48:17;1.38;;;1.27;;
32032;SDS011;31720;52.638;9.216;2022-12-18T05:51:20;0.88;;;0.88;;
32032;SDS011;31720;52.638;9.216;2022-12-18T05:54:23;2.63;;;2.22;;
32032;SDS011;31720;52.638;9.216;2022-12-18T05:57:24;6.32;;;2.17;;
32032;SDS011;31720;52.638;9.216;2022-12-18T06:00:26;3.45;;;2.50;;
32032;SDS011;31720;52.638;9.216;2022-12-18T06:03:29;1.23;;;1.08;;
32032;SDS011;31720;52.638;9.216;2022-12-18T06:06:30;1.23;;;0.90;;
32032;SDS011;31720;52.638;9.216;2022-12-18T06:09:32;1.55;;;1.35;;
32032;SDS011;31720;52.638;9.216;2022-12-18T06:12:33;4.57;;;1.15;;
32032;SDS011;31720;52.638;9.216;2022-12-18T06:15:36;2.08;;;1.05;;
32032;SDS011;31720;52.638;9.216;2022-12-18T06:18:39;2.03;;;1.88;;
32032;SDS011;31720;52.638;9.216;2022-12-18T06:21:40;3.17;;;2.28;;
32032;SDS011;31720;52.638;9.216;2022-12-18T06:24:42;1.95;;;0.85;;
32032;SDS011;31720;52.638;9.216;2022-12-18T06:27:43;1.48;;;1.27;;
32032;SDS011;31720;52.638;9.216;2022-12-18T06:30:45;0.68;;;0.60;;
32032;SDS011;31720;52.638;9.216;2022-12-18T06:33:49;1.30;;;1.20;;
32032;SDS011;31720;52.638;9.216;2022-12-18T06:36:51;1.83;;;1.33;;
32032;SDS011;31720;52.638;9.216;2022-12-18T06:39:52;2.13;;;0.57;;
32032;SDS011;31720;52.638;9.216;2022-12-18T06:42:54;3.30;;;2.20;;
32032;SDS011;31720;52.638;9.216;2022-12-18T06:45:58;1.05;;;0.98;;
32032;SDS011;31720;52.638;9.216;2022-12-18T06:49:01;4.85;;;2.63;;
32032;SDS011;31720;52.638;9.216;2022-12-18T06:52:03;1.40;;;1.30;;
32032;SDS011;31720;52.638;9.216;2022-12-18T06:55:05;4.78;;;1.58;;
32032;SDS011;31720;52.638;9.216;2022-12-18T06:58:08;4.53;;;2.60;;
32032;SDS011;31720;52.638;9.216;2022-12-18T07:01:10;11.23;;;1.80;;
32032;SDS011;31720;52.638;9.216;2022-12-18T07:04:13;2.38;;;0.88;;
32032;SDS011;31720;52.638;9.216;2022-12-18T07:07:15;4.95;;;2.88;;
32032;SDS011;31720;52.638;9.216;2022-12-18T07:10:16;3.53;;;1.70;;
32032;SDS011;31720;52.638;9.216;2022-12-18T07:13:18;8.75;;;3.03;;
32032;SDS011;31720;52.638;9.216;2022-12-18T07:16:20;1.70;;;1.33;;
32032;SDS011;31720;52.638;9.216;2022-12-18T07:19:25;1.85;;;1.73;;
32032;SDS011;31720;52.638;9.216;2022-12-18T07:22:26;5.38;;;2.10;;
32032;SDS011;31720;52.638;9.216;2022-12-18T07:25:27;3.83;;;1.42;;
32032;SDS011;31720;52.638;9.216;2022-12-18T07:28:29;3.70;;;2.65;;
32032;SDS011;31720;52.638;9.216;2022-12-18T07:31:31;7.65;;;3.38;;
32032;SDS011;31720;52.638;9.216;2022-12-18T07:34:33;4.13;;;1.40;;
32032;SDS011;31720;52.638;9.216;2022-12-18T07:37:35;1.58;;;0.98;;
32032;SDS011;31720;52.638;9.216;2022-12-18T07:40:36;2.28;;;1.95;;
32032;SDS011;31720;52.638;9.216;2022-12-18T07:43:38;1.30;;;1.05;;
32032;SDS011;31720;52.638;9.216;2022-12-18T07:46:41;2.25;;;1.77;;
32032;SDS011;31720;52.638;9.216;2022-12-18T07:49:44;4.57;;;3.35;;
32032;SDS011;31720;52.638;9.216;2022-12-18T07:52:45;6.25;;;2.50;;
32032;SDS011;31720;52.638;9.216;2022-12-18T07:55:47;0.75;;;0.65;;
32032;SDS011;31720;52.638;9.216;2022-12-18T07:58:48;2.95;;;1.73;;
32032;SDS011;31720;52.638;9.216;2022-12-18T08:01:50;3.92;;;1.65;;
32032;SDS011;31720;52.638;9.216;2022-12-18T08:04:52;5.57;;;3.20;;
32032;SDS011;31720;52.638;9.216;2022-12-18T08:07:54;4.53;;;1.90;;
32032;SDS011;31720;52.638;9.216;2022-12-18T08:10:56;11.45;;;3.88;;
32032;SDS011;31720;52.638;9.216;2022-12-18T08:13:57;4.93;;;1.52;;
32032;SDS011;31720;52.638;9.216;2022-12-18T08:16:59;7.68;;;2.10;;
32032;SDS011;31720;52.638;9.216;2022-12-18T08:20:02;2.25;;;2.03;;
32032;SDS011;31720;52.638;9.216;2022-12-18T08:23:03;4.05;;;1.80;;
32032;SDS011;31720;52.638;9.216;2022-12-18T08:26:05;5.03;;;2.60;;
32032;SDS011;31720;52.638;9.216;2022-12-18T08:29:07;1.23;;;0.98;;
32032;SDS011;31720;52.638;9.216;2022-12-18T08:32:09;8.07;;;3.17;;
32032;SDS011;31720;52.638;9.216;2022-12-18T08:35:12;2.03;;;1.83;;
32032;SDS011;31720;52.638;9.216;2022-12-18T08:38:13;4.40;;;1.92;;
32032;SDS011;31720;52.638;9.216;2022-12-18T08:41:16;4.72;;;1.45;;
32032;SDS011;31720;52.638;9.216;2022-12-18T08:44:18;7.68;;;2.38;;
32032;SDS011;31720;52.638;9.216;2022-12-18T08:47:37;3.30;;;2.35;;
32032;SDS011;31720;52.638;9.216;2022-12-18T08:50:40;6.75;;;2.45;;
32032;SDS011;31720;52.638;9.216;2022-12-18T08:53:41;4.45;;;1.98;;
32032;SDS011;31720;52.638;9.216;2022-12-18T08:56:44;6.72;;;2.72;;
32032;SDS011;31720;52.638;9.216;2022-12-18T08:59:45;5.28;;;1.15;;
32032;SDS011;31720;52.638;9.216;2022-12-18T09:02:48;5.25;;;3.47;;
32032;SDS011;31720;52.638;9.216;2022-12-18T09:05:51;4.65;;;2.47;;
32032;SDS011;31720;52.638;9.216;2022-12-18T09:08:52;3.13;;;2.50;;
32032;SDS011;31720;52.638;9.216;2022-12-18T09:11:53;2.13;;;1.88;;
32032;SDS011;31720;52.638;9.216;2022-12-18T09:14:55;1.70;;;1.38;;
32032;SDS011;31720;52.638;9.216;2022-12-18T09:17:57;7.28;;;1.90;;
32032;SDS011;31720;52.638;9.216;2022-12-18T09:21:00;1.90;;;1.63;;
32032;SDS011;31720;52.638;9.216;2022-12-18T09:24:08;8.48;;;1.83;;
32032;SDS011;31720;52.638;9.216;2022-12-18T09:27:13;4.57;;;3.88;;
32032;SDS011;31720;52.638;9.216;2022-12-18T09:30:14;4.95;;;2.95;;
32032;SDS011;31720;52.638;9.216;2022-12-18T09:33:16;10.05;;;2.83;;
32032;SDS011;31720;52.638;9.216;2022-12-18T09:36:19;8.20;;;1.58;;
32032;SDS011;31720;52.638;9.216;2022-12-18T09:39:21;7.03;;;3.22;;
32032;SDS011;31720;52.638;9.216;2022-12-18T09:42:22;9.10;;;1.85;;
32032;SDS011;31720;52.638;9.216;2022-12-18T09:45:24;2.30;;;1.88;;
32032;SDS011;31720;52.638;9.216;2022-12-18T09:48:27;3.30;;;1.85;;
32032;SDS011;31720;52.638;9.216;2022-12-18T09:51:35;4.03;;;2.78;;
32032;SDS011;31720;52.638;9.216;2022-12-18T09:54:40;7.78;;;2.45;;
32032;SDS011;31720;52.638;9.216;2022-12-18T09:57:45;12.65;;;2.05;;
32032;SDS011;31720;52.638;9.216;2022-12-18T10:00:51;6.18;;;2.63;;
32032;SDS011;31720;52.638;9.216;2022-12-18T10:03:52;2.30;;;1.80;;
32032;SDS011;31720;52.638;9.216;2022-12-18T10:06:57;2.83;;;1.90;;
32032;SDS011;31720;52.638;9.216;2022-12-18T10:10:05;2.92;;;2.58;;
32032;SDS011;31720;52.638;9.216;2022-12-18T10:13:15;3.30;;;2.40;;
32032;SDS011;31720;52.638;9.216;2022-12-18T10:16:23;13.40;;;4.07;;
32032;SDS011;31720;52.638;9.216;2022-12-18T10:19:34;4.13;;;2.30;;
32032;SDS011;31720;52.638;9.216;2022-12-18T10:22:49;10.63;;;3.95;;
32032;SDS011;31720;52.638;9.216;2022-12-18T10:25:59;7.15;;;3.00;;
32032;SDS011;31720;52.638;9.216;2022-12-18T10:29:04;17.83;;;3.72;;
32032;SDS011;31720;52.638;9.216;2022-12-18T10:32:13;4.50;;;2.33;;
32032;SDS011;31720;52.638;9.216;2022-12-18T10:35:18;3.65;;;1.88;;
32032;SDS011;31720;52.638;9.216;2022-12-18T10:38:23;4.30;;;2.85;;
32032;SDS011;31720;52.638;9.216;2022-12-18T10:41:27;12.43;;;6.18;;
32032;SDS011;31720;52.638;9.216;2022-12-18T10:44:30;10.10;;;3.67;;
32032;SDS011;31720;52.638;9.216;2022-12-18T10:47:32;12.27;;;4.45;;
32032;SDS011;31720;52.638;9.216;2022-12-18T10:50:35;6.43;;;4.47;;
32032;SDS011;31720;52.638;9.216;2022-12-18T10:53:40;8.18;;;3.70;;
32032;SDS011;31720;52.638;9.216;2022-12-18T10:56:43;5.78;;;3.38;;
32032;SDS011;31720;52.638;9.216;2022-12-18T10:59:49;9.45;;;3.90;;
32032;SDS011;31720;52.638;9.216;2022-12-18T11:02:52;12.80;;;3.95;;
32032;SDS011;31720;52.638;9.216;2022-12-18T11:06:00;21.05;;;4.55;;
32032;SDS011;31720;52.638;9.216;2022-12-18T11:09:05;9.55;;;4.07;;
32032;SDS011;31720;52.638;9.216;2022-12-18T11:12:20;11.13;;;4.43;;
32032;SDS011;31720;52.638;9.216;2022-12-18T11:15:25;8.20;;;4.13;;
32032;SDS011;31720;52.638;9.216;2022-12-18T11:18:31;9.20;;;2.85;;
32032;SDS011;31720;52.638;9.216;2022-12-18T11:21:38;12.63;;;4.57;;
32032;SDS011;31720;52.638;9.216;2022-12-18T11:24:42;8.18;;;4.03;;
32032;SDS011;31720;52.638;9.216;2022-12-18T11:27:47;7.80;;;3.50;;
32032;SDS011;31720;52.638;9.216;2022-12-18T11:30:50;10.27;;;4.93;;
32032;SDS011;31720;52.638;9.216;2022-12-18T11:34:14;6.22;;;3.72;;
32032;SDS011;31720;52.638;9.216;2022-12-18T11:37:21;6.90;;;3.93;;
32032;SDS011;31720;52.638;9.216;2022-12-18T11:40:26;5.20;;;2.65;;
32032;SDS011;31720;52.638;9.216;2022-12-18T11:43:31;8.15;;;2.63;;
32032;SDS011;31720;52.638;9.216;2022-12-18T11:46:39;6.63;;;3.30;;
32032;SDS011;31720;52.638;9.216;2022-12-18T11:52:50;3.20;;;2.15;;
32032;SDS011;31720;52.638;9.216;2022-12-18T11:55:56;4.05;;;2.05;;
32032;SDS011;31720;52.638;9.216;2022-12-18T11:59:08;6.38;;;3.50;;
32032;SDS011;31720;52.638;9.216;2022-12-18T12:02:19;5.22;;;3.00;;
32032;SDS011;31720;52.638;9.216;2022-12-18T12:05:43;5.95;;;2.63;;
32032;SDS011;31720;52.638;9.216;2022-12-18T12:08:56;5.00;;;3.10;;
32032;SDS011;31720;52.638;9.216;2022-12-18T12:12:14;2.80;;;2.03;;
32032;SDS011;31720;52.638;9.216;2022-12-18T12:15:31;6.68;;;2.75;;
32032;SDS011;31720;52.638;9.216;2022-12-18T12:18:44;2.50;;;1.88;;
32032;SDS011;31720;52.638;9.216;2022-12-18T12:21:58;6.97;;;3.28;;
32032;SDS011;31720;52.638;9.216;2022-12-18T12:25:13;5.60;;;1.75;;
32032;SDS011;31720;52.638;9.216;2022-12-18T12:28:34;6.72;;;2.95;;
32032;SDS011;31720;52.638;9.216;2022-12-18T12:31:52;5.28;;;2.90;;
32032;SDS011;31720;52.638;9.216;2022-12-18T12:35:08;3.33;;;2.10;;
32032;SDS011;31720;52.638;9.216;2022-12-18T12:38:19;6.70;;;2.47;;
32032;SDS011;31720;52.638;9.216;2022-12-18T12:41:25;5.20;;;2.80;;
32032;SDS011;31720;52.638;9.216;2022-12-18T12:44:50;4.53;;;2.38;;
32032;SDS011;31720;52.638;9.216;2022-12-18T12:47:55;2.58;;;2.17;;
32032;SDS011;31720;52.638;9.216;2022-12-18T12:51:00;7.57;;;3.22;;
32032;SDS011;31720;52.638;9.216;2022-12-18T12:54:05;6.63;;;2.88;;
32032;SDS011;31720;52.638;9.216;2022-12-18T12:57:18;3.42;;;2.55;;
32032;SDS011;31720;52.638;9.216;2022-12-18T13:00:25;2.17;;;1.35;;
32032;SDS011;31720;52.638;9.216;2022-12-18T13:03:35;3.63;;;1.73;;
32032;SDS011;31720;52.638;9.216;2022-12-18T13:06:45;3.08;;;2.03;;
32032;SDS011;31720;52.638;9.216;2022-12-18T13:10:14;2.25;;;1.73;;
32032;SDS011;31720;52.638;9.216;2022-12-18T13:13:25;3.40;;;1.85;;
32032;SDS011;31720;52.638;9.216;2022-12-18T13:16:52;5.38;;;1.98;;
32032;SDS011;31720;52.638;9.216;2022-12-18T13:20:35;5.47;;;2.83;;
32032;SDS011;31720;52.638;9.216;2022-12-18T13:23:38;7.45;;;2.55;;
32032;SDS011;31720;52.638;9.216;2022-12-18T13:26:39;4.88;;;2.80;;
32032;SDS011;31720;52.638;9.216;2022-12-18T13:29:42;5.95;;;3.08;;
32032;SDS011;31720;52.638;9.216;2022-12-18T13:32:45;3.75;;;1.52;;
32032;SDS011;31720;52.638;9.216;2022-12-18T13:35:51;4.40;;;2.10;;
32032;SDS011;31720;52.638;9.216;2022-12-18T13:42:37;10.63;;;2.88;;
32032;SDS011;31720;52.638;9.216;2022-12-18T13:45:59;5.32;;;3.03;;
32032;SDS011;31720;52.638;9.216;2022-12-18T13:49:04;6.60;;;3.35;;
32032;SDS011;31720;52.638;9.216;2022-12-18T13:52:19;7.85;;;3.05;;
32032;SDS011;31720;52.638;9.216;2022-12-18T13:55:23;5.05;;;2.70;;
32032;SDS011;31720;52.638;9.216;2022-12-18T13:58:25;3.20;;;1.98;;
32032;SDS011;31720;52.638;9.216;2022-12-18T14:01:26;10.00;;;3.05;;
32032;SDS011;31720;52.638;9.216;2022-12-18T14:04:30;4.70;;;2.63;;
32032;SDS011;31720;52.638;9.216;2022-12-18T14:07:33;7.35;;;4.35;;
32032;SDS011;31720;52.638;9.216;2022-12-18T14:10:35;2.88;;;2.10;;
32032;SDS011;31720;52.638;9.216;2022-12-18T14:13:41;5.53;;;3.17;;
32032;SDS011;31720;52.638;9.216;2022-12-18T14:16:43;2.42;;;1.60;;
32032;SDS011;31720;52.638;9.216;2022-12-18T14:19:47;5.63;;;2.35;;
32032;SDS011;31720;52.638;9.216;2022-12-18T14:22:51;4.40;;;2.17;;
32032;SDS011;31720;52.638;9.216;2022-12-18T14:25:52;8.18;;;2.67;;
32032;SDS011;31720;52.638;9.216;2022-12-18T14:28:54;7.45;;;3.25;;
32032;SDS011;31720;52.638;9.216;2022-12-18T14:35:18;6.25;;;2.58;;
32032;SDS011;31720;52.638;9.216;2022-12-18T14:38:21;3.63;;;2.00;;
32032;SDS011;31720;52.638;9.216;2022-12-18T14:41:26;5.13;;;2.50;;
32032;SDS011;31720;52.638;9.216;2022-12-18T14:44:28;8.23;;;2.47;;
32032;SDS011;31720;52.638;9.216;2022-12-18T14:47:30;4.82;;;2.58;;
32032;SDS011;31720;52.638;9.216;2022-12-18T14:50:33;5.40;;;2.70;;
32032;SDS011;31720;52.638;9.216;2022-12-18T14:53:36;4.53;;;2.45;;
32032;SDS011;31720;52.638;9.216;2022-12-18T14:56:42;12.20;;;4.07;;
32032;SDS011;31720;52.638;9.216;2022-12-18T14:59:46;9.57;;;2.22;;
32032;SDS011;31720;52.638;9.216;2022-12-18T15:02:49;10.05;;;2.65;;
32032;SDS011;31720;52.638;9.216;2022-12-18T15:05:55;4.15;;;2.47;;
32032;SDS011;31720;52.638;9.216;2022-12-18T15:08:57;5.20;;;2.53;;
32032;SDS011;31720;52.638;9.216;2022-12-18T15:11:59;3.08;;;2.20;;
32032;SDS011;31720;52.638;9.216;2022-12-18T15:15:02;8.52;;;3.08;;
32032;SDS011;31720;52.638;9.216;2022-12-18T15:18:04;6.40;;;3.38;;
32032;SDS011;31720;52.638;9.216;2022-12-18T15:21:15;7.15;;;3.00;;
32032;SDS011;31720;52.638;9.216;2022-12-18T15:24:24;7.72;;;3.53;;
32032;SDS011;31720;52.638;9.216;2022-12-18T15:27:29;8.73;;;3.80;;
32032;SDS011;31720;52.638;9.216;2022-12-18T15:30:32;6.72;;;2.95;;
32032;SDS011;31720;52.638;9.216;2022-12-18T15:33:34;5.78;;;3.22;;
32032;SDS011;31720;52.638;9.216;2022-12-18T15:36:38;5.25;;;2.38;;
32032;SDS011;31720;52.638;9.216;2022-12-18T15:39:41;6.07;;;3.60;;
32032;SDS011;31720;52.638;9.216;2022-12-18T15:42:43;6.55;;;3.47;;
32032;SDS011;31720;52.638;9.216;2022-12-18T15:46:03;4.38;;;2.45;;
32032;SDS011;31720;52.638;9.216;2022-12-18T15:49:06;10.73;;;3.70;;
32032;SDS011;31720;52.638;9.216;2022-12-18T15:52:10;5.22;;;2.53;;
32032;SDS011;31720;52.638;9.216;2022-12-18T15:55:25;7.47;;;3.15;;
32032;SDS011;31720;52.638;9.216;2022-12-18T15:58:45;8.35;;;3.53;;
32032;SDS011;31720;52.638;9.216;2022-12-18T16:01:47;6.45;;;3.50;;
32032;SDS011;31720;52.638;9.216;2022-12-18T16:04:50;14.70;;;4.65;;
32032;SDS011;31720;52.638;9.216;2022-12-18T16:07:53;6.43;;;2.63;;
32032;SDS011;31720;52.638;9.216;2022-12-18T16:10:55;7.65;;;3.85;;
32032;SDS011;31720;52.638;9.216;2022-12-18T16:13:56;9.68;;;3.22;;
32032;SDS011;31720;52.638;9.216;2022-12-18T16:16:58;11.40;;;4.93;;
32032;SDS011;31720;52.638;9.216;2022-12-18T16:20:01;8.48;;;2.60;;
32032;SDS011;31720;52.638;9.216;2022-12-18T16:23:05;5.80;;;3.40;;
32032;SDS011;31720;52.638;9.216;2022-12-18T16:26:06;9.13;;;3.10;;
32032;SDS011;31720;52.638;9.216;2022-12-18T16:29:08;8.25;;;3.38;;
32032;SDS011;31720;52.638;9.216;2022-12-18T16:32:11;7.47;;;3.25;;
32032;SDS011;31720;52.638;9.216;2022-12-18T16:35:14;9.20;;;3.53;;
32032;SDS011;31720;52.638;9.216;2022-12-18T16:38:18;5.40;;;3.03;;
32032;SDS011;31720;52.638;9.216;2022-12-18T16:41:20;12.13;;;3.20;;
32032;SDS011;31720;52.638;9.216;2022-12-18T16:44:33;12.07;;;4.07;;
32032;SDS011;31720;52.638;9.216;2022-12-18T16:47:35;8.75;;;3.20;;
32032;SDS011;31720;52.638;9.216;2022-12-18T16:50:36;4.35;;;2.53;;
32032;SDS011;31720;52.638;9.216;2022-12-18T16:53:39;9.57;;;4.35;;
32032;SDS011;31720;52.638;9.216;2022-12-18T16:56:41;7.03;;;3.33;;
32032;SDS011;31720;52.638;9.216;2022-12-18T16:59:42;7.70;;;3.38;;
32032;SDS011;31720;52.638;9.216;2022-12-18T17:02:45;8.13;;;3.85;;
32032;SDS011;31720;52.638;9.216;2022-12-18T17:05:47;5.82;;;3.38;;
32032;SDS011;31720;52.638;9.216;2022-12-18T17:08:53;4.57;;;2.72;;
32032;SDS011;31720;52.638;9.216;2022-12-18T17:11:55;11.40;;;3.72;;
32032;SDS011;31720;52.638;9.216;2022-12-18T17:14:57;4.55;;;2.88;;
32032;SDS011;31720;52.638;9.216;2022-12-18T17:17:58;6.30;;;3.03;;
32032;SDS011;31720;52.638;9.216;2022-12-18T17:21:00;6.53;;;2.95;;
32032;SDS011;31720;52.638;9.216;2022-12-18T17:24:03;10.50;;;3.10;;
32032;SDS011;31720;52.638;9.216;2022-12-18T17:27:05;9.10;;;3.80;;
32032;SDS011;31720;52.638;9.216;2022-12-18T17:30:08;6.30;;;3.20;;
32032;SDS011;31720;52.638;9.216;2022-12-18T17:33:10;19.13;;;3.05;;
32032;SDS011;31720;52.638;9.216;2022-12-18T17:36:12;6.68;;;3.50;;
32032;SDS011;31720;52.638;9.216;2022-12-18T17:39:17;18.88;;;3.72;;
32032;SDS011;31720;52.638;9.216;2022-12-18T17:42:19;9.93;;;3.20;;
32032;SDS011;31720;52.638;9.216;2022-12-18T17:45:21;5.50;;;3.15;;
32032;SDS011;31720;52.638;9.216;2022-12-18T17:48:22;10.75;;;3.53;;
32032;SDS011;31720;52.638;9.216;2022-12-18T17:51:24;6.80;;;3.15;;
32032;SDS011;31720;52.638;9.216;2022-12-18T17:54:27;6.72;;;3.65;;
32032;SDS011;31720;52.638;9.216;2022-12-18T17:57:29;10.52;;;3.85;;
32032;SDS011;31720;52.638;9.216;2022-12-18T18:00:30;8.10;;;4.13;;
32032;SDS011;31720;52.638;9.216;2022-12-18T18:03:32;6.88;;;2.92;;
32032;SDS011;31720;52.638;9.216;2022-12-18T18:06:36;7.07;;;3.50;;
32032;SDS011;31720;52.638;9.216;2022-12-18T18:09:39;10.43;;;3.65;;
32032;SDS011;31720;52.638;9.216;2022-12-18T18:12:41;6.03;;;3.17;;
32032;SDS011;31720;52.638;9.216;2022-12-18T18:16:00;11.18;;;3.85;;
32032;SDS011;31720;52.638;9.216;2022-12-18T18:19:04;7.68;;;4.15;;
32032;SDS011;31720;52.638;9.216;2022-12-18T18:22:08;10.15;;;3.60;;
32032;SDS011;31720;52.638;9.216;2022-12-18T18:25:10;12.23;;;3.88;;
32032;SDS011;31720;52.638;9.216;2022-12-18T18:28:12;8.90;;;3.38;;
32032;SDS011;31720;52.638;9.216;2022-12-18T18:31:13;6.32;;;3.25;;
32032;SDS011;31720;52.638;9.216;2022-12-18T18:34:16;8.13;;;4.00;;
32032;SDS011;31720;52.638;9.216;2022-12-18T18:37:18;5.72;;;3.08;;
32032;SDS011;31720;52.638;9.216;2022-12-18T18:40:20;5.43;;;3.10;;